sensor_id;sensor_type;location;lat;lon;timestamp;P1;durP1;ratioP1;P2;durP2;ratioP2
27293;SDS011;14785;52.556;13.430;2023-02-02T00:00:48;19.08;;;2.50;;
27293;SDS011;14785;52.556;13.430;2023-02-02T00:03:14;14.38;;;2.15;;
27293;SDS011;14785;52.556;13.430;2023-02-02T00:05:45;21.58;;;3.63;;
27293;SDS011;14785;52.556;13.430;2023-02-02T00:08:13;11.27;;;2.92;;
27293;SDS011;14785;52.556;13.430;2023-02-02T00:10:39;11.32;;;3.03;;
27293;SDS011;14785;52.556;13.430;2023-02-02T00:13:05;11.80;;;2.33;;
27293;SDS011;14785;52.556;13.430;2023-02-02T00:15:31;19.08;;;2.75;;
27293;SDS011;14785;52.556;13.430;2023-02-02T00:17:56;6.87;;;2.10;;
27293;SDS011;14785;52.556;13.430;2023-02-02T00:20:21;10.87;;;2.27;;
27293;SDS011;14785;52.556;13.430;2023-02-02T00:22:48;9.40;;;2.28;;
27293;SDS011;14785;52.556;13.430;2023-02-02T00:25:13;4.13;;;1.83;;
27293;SDS011;14785;52.556;13.430;2023-02-02T00:27:39;12.20;;;1.77;;
27293;SDS011;14785;52.556;13.430;2023-02-02T00:30:04;20.83;;;2.67;;
27293;SDS011;14785;52.556;13.430;2023-02-02T00:32:31;7.15;;;2.22;;
27293;SDS011;14785;52.556;13.430;2023-02-02T00:34:56;13.23;;;3.43;;
27293;SDS011;14785;52.556;13.430;2023-02-02T00:37:21;12.13;;;2.23;;
27293;SDS011;14785;52.556;13.430;2023-02-02T00:39:48;5.15;;;2.05;;
27293;SDS011;14785;52.556;13.430;2023-02-02T00:42:14;12.17;;;2.40;;
27293;SDS011;14785;52.556;13.430;2023-02-02T00:44:41;10.50;;;2.33;;
27293;SDS011;14785;52.556;13.430;2023-02-02T00:47:25;12.93;;;2.30;;
27293;SDS011;14785;52.556;13.430;2023-02-02T00:49:50;24.03;;;4.17;;
27293;SDS011;14785;52.556;13.430;2023-02-02T00:52:15;15.77;;;3.10;;
27293;SDS011;14785;52.556;13.430;2023-02-02T00:54:41;11.67;;;2.87;;
27293;SDS011;14785;52.556;13.430;2023-02-02T00:57:08;23.07;;;4.00;;
27293;SDS011;14785;52.556;13.430;2023-02-02T00:59:37;11.73;;;2.90;;
27293;SDS011;14785;52.556;13.430;2023-02-02T01:02:02;12.10;;;3.57;;
27293;SDS011;14785;52.556;13.430;2023-02-02T01:04:28;14.60;;;3.17;;
27293;SDS011;14785;52.556;13.430;2023-02-02T01:06:53;11.67;;;2.67;;
27293;SDS011;14785;52.556;13.430;2023-02-02T01:09:19;12.17;;;2.83;;
27293;SDS011;14785;52.556;13.430;2023-02-02T01:11:44;13.97;;;3.37;;
27293;SDS011;14785;52.556;13.430;2023-02-02T01:14:10;7.73;;;2.77;;
27293;SDS011;14785;52.556;13.430;2023-02-02T01:16:35;18.03;;;2.87;;
27293;SDS011;14785;52.556;13.430;2023-02-02T01:19:00;30.37;;;2.87;;
27293;SDS011;14785;52.556;13.430;2023-02-02T01:21:26;12.60;;;3.87;;
27293;SDS011;14785;52.556;13.430;2023-02-02T01:23:52;16.40;;;3.63;;
27293;SDS011;14785;52.556;13.430;2023-02-02T01:26:17;22.40;;;3.00;;
27293;SDS011;14785;52.556;13.430;2023-02-02T01:28:43;6.40;;;2.60;;
27293;SDS011;14785;52.556;13.430;2023-02-02T01:31:11;14.43;;;2.97;;
27293;SDS011;14785;52.556;13.430;2023-02-02T01:33:44;13.52;;;2.63;;
27293;SDS011;14785;52.556;13.430;2023-02-02T01:36:14;19.83;;;3.00;;
27293;SDS011;14785;52.556;13.430;2023-02-02T01:38:42;15.48;;;2.60;;
27293;SDS011;14785;52.556;13.430;2023-02-02T01:41:11;12.25;;;2.63;;
27293;SDS011;14785;52.556;13.430;2023-02-02T01:46:16;8.70;;;3.38;;
27293;SDS011;14785;52.556;13.430;2023-02-02T01:48:45;8.40;;;2.80;;
27293;SDS011;14785;52.556;13.430;2023-02-02T01:51:16;14.02;;;2.08;;
27293;SDS011;14785;52.556;13.430;2023-02-02T01:53:44;16.95;;;2.50;;
27293;SDS011;14785;52.556;13.430;2023-02-02T01:56:13;11.82;;;1.85;;
27293;SDS011;14785;52.556;13.430;2023-02-02T01:58:50;11.52;;;2.53;;
27293;SDS011;14785;52.556;13.430;2023-02-02T02:01:16;13.07;;;3.22;;
27293;SDS011;14785;52.556;13.430;2023-02-02T02:03:42;15.23;;;2.63;;
27293;SDS011;14785;52.556;13.430;2023-02-02T02:06:09;13.77;;;2.63;;
27293;SDS011;14785;52.556;13.430;2023-02-02T02:08:42;10.38;;;2.25;;
27293;SDS011;14785;52.556;13.430;2023-02-02T02:11:24;11.90;;;2.72;;
27293;SDS011;14785;52.556;13.430;2023-02-02T02:13:50;13.93;;;3.27;;
27293;SDS011;14785;52.556;13.430;2023-02-02T02:29:02;8.50;;;2.10;;
27293;SDS011;14785;52.556;13.430;2023-02-02T02:37:24;17.38;;;2.72;;
27293;SDS011;14785;52.556;13.430;2023-02-02T02:40:12;11.27;;;2.40;;
27293;SDS011;14785;52.556;13.430;2023-02-02T02:43:04;12.05;;;2.00;;
27293;SDS011;14785;52.556;13.430;2023-02-02T02:45:33;13.40;;;3.20;;
27293;SDS011;14785;52.556;13.430;2023-02-02T02:48:01;12.45;;;2.58;;
27293;SDS011;14785;52.556;13.430;2023-02-02T02:52:58;4.15;;;2.10;;
27293;SDS011;14785;52.556;13.430;2023-02-02T02:55:30;8.17;;;2.73;;
27293;SDS011;14785;52.556;13.430;2023-02-02T03:06:22;22.70;;;2.35;;
27293;SDS011;14785;52.556;13.430;2023-02-02T03:09:06;42.22;;;3.08;;
27293;SDS011;14785;52.556;13.430;2023-02-02T03:11:36;10.50;;;2.35;;
27293;SDS011;14785;52.556;13.430;2023-02-02T03:14:02;14.80;;;2.30;;
27293;SDS011;14785;52.556;13.430;2023-02-02T03:16:28;6.82;;;1.73;;
27293;SDS011;14785;52.556;13.430;2023-02-02T03:18:53;8.90;;;2.33;;
27293;SDS011;14785;52.556;13.430;2023-02-02T03:23:45;12.95;;;1.98;;
27293;SDS011;14785;52.556;13.430;2023-02-02T03:26:10;13.60;;;1.83;;
27293;SDS011;14785;52.556;13.430;2023-02-02T03:28:37;15.63;;;3.00;;
27293;SDS011;14785;52.556;13.430;2023-02-02T03:31:03;17.83;;;2.10;;
27293;SDS011;14785;52.556;13.430;2023-02-02T03:33:29;8.13;;;1.40;;
27293;SDS011;14785;52.556;13.430;2023-02-02T03:35:57;8.70;;;1.23;;
27293;SDS011;14785;52.556;13.430;2023-02-02T03:38:22;9.50;;;2.77;;
27293;SDS011;14785;52.556;13.430;2023-02-02T03:40:49;6.13;;;1.83;;
27293;SDS011;14785;52.556;13.430;2023-02-02T03:43:18;10.98;;;2.08;;
27293;SDS011;14785;52.556;13.430;2023-02-02T03:45:45;5.47;;;1.73;;
27293;SDS011;14785;52.556;13.430;2023-02-02T03:48:10;10.53;;;1.87;;
27293;SDS011;14785;52.556;13.430;2023-02-02T03:50:36;10.00;;;2.03;;
27293;SDS011;14785;52.556;13.430;2023-02-02T03:53:01;8.43;;;1.90;;
27293;SDS011;14785;52.556;13.430;2023-02-02T03:55:27;7.00;;;2.17;;
27293;SDS011;14785;52.556;13.430;2023-02-02T03:57:52;5.03;;;2.27;;
27293;SDS011;14785;52.556;13.430;2023-02-02T04:00:18;11.93;;;1.70;;
27293;SDS011;14785;52.556;13.430;2023-02-02T04:02:43;8.35;;;1.70;;
27293;SDS011;14785;52.556;13.430;2023-02-02T04:05:09;10.70;;;2.17;;
27293;SDS011;14785;52.556;13.430;2023-02-02T04:07:34;17.90;;;3.10;;
27293;SDS011;14785;52.556;13.430;2023-02-02T04:09:59;7.30;;;1.63;;
27293;SDS011;14785;52.556;13.430;2023-02-02T04:12:25;4.20;;;1.50;;
27293;SDS011;14785;52.556;13.430;2023-02-02T04:14:50;9.67;;;1.30;;
27293;SDS011;14785;52.556;13.430;2023-02-02T04:17:16;4.63;;;1.67;;
27293;SDS011;14785;52.556;13.430;2023-02-02T04:19:41;12.10;;;2.03;;
27293;SDS011;14785;52.556;13.430;2023-02-02T04:22:06;10.57;;;2.40;;
27293;SDS011;14785;52.556;13.430;2023-02-02T04:24:32;4.80;;;1.93;;
27293;SDS011;14785;52.556;13.430;2023-02-02T04:26:57;6.80;;;1.50;;
27293;SDS011;14785;52.556;13.430;2023-02-02T04:29:23;9.53;;;1.87;;
27293;SDS011;14785;52.556;13.430;2023-02-02T04:31:50;19.35;;;1.90;;
27293;SDS011;14785;52.556;13.430;2023-02-02T04:34:15;11.73;;;2.23;;
27293;SDS011;14785;52.556;13.430;2023-02-02T04:36:41;7.07;;;1.27;;
27293;SDS011;14785;52.556;13.430;2023-02-02T04:39:08;9.47;;;1.80;;
27293;SDS011;14785;52.556;13.430;2023-02-02T04:41:35;8.43;;;2.05;;
27293;SDS011;14785;52.556;13.430;2023-02-02T04:44:01;9.77;;;2.27;;
27293;SDS011;14785;52.556;13.430;2023-02-02T04:46:26;8.40;;;1.40;;
27293;SDS011;14785;52.556;13.430;2023-02-02T04:48:52;14.85;;;1.77;;
27293;SDS011;14785;52.556;13.430;2023-02-02T04:51:18;9.33;;;1.70;;
27293;SDS011;14785;52.556;13.430;2023-02-02T04:53:43;17.83;;;2.73;;
27293;SDS011;14785;52.556;13.430;2023-02-02T04:56:16;11.70;;;2.13;;
27293;SDS011;14785;52.556;13.430;2023-02-02T04:58:42;9.23;;;1.77;;
27293;SDS011;14785;52.556;13.430;2023-02-02T05:01:15;4.03;;;2.15;;
27293;SDS011;14785;52.556;13.430;2023-02-02T05:03:43;5.55;;;1.67;;
27293;SDS011;14785;52.556;13.430;2023-02-02T05:06:09;4.07;;;1.40;;
27293;SDS011;14785;52.556;13.430;2023-02-02T05:08:35;4.38;;;1.63;;
27293;SDS011;14785;52.556;13.430;2023-02-02T05:13:55;18.65;;;2.58;;
27293;SDS011;14785;52.556;13.430;2023-02-02T05:16:21;3.43;;;1.33;;
27293;SDS011;14785;52.556;13.430;2023-02-02T05:18:48;4.40;;;0.80;;
27293;SDS011;14785;52.556;13.430;2023-02-02T05:21:15;14.15;;;1.45;;
27293;SDS011;14785;52.556;13.430;2023-02-02T05:23:40;4.20;;;1.40;;
27293;SDS011;14785;52.556;13.430;2023-02-02T05:26:06;5.43;;;1.93;;
27293;SDS011;14785;52.556;13.430;2023-02-02T05:28:31;3.67;;;1.30;;
27293;SDS011;14785;52.556;13.430;2023-02-02T05:30:59;8.30;;;1.95;;
27293;SDS011;14785;52.556;13.430;2023-02-02T05:33:29;8.70;;;2.05;;
27293;SDS011;14785;52.556;13.430;2023-02-02T05:35:54;13.63;;;2.97;;
27293;SDS011;14785;52.556;13.430;2023-02-02T05:38:20;16.57;;;2.77;;
27293;SDS011;14785;52.556;13.430;2023-02-02T05:40:47;8.47;;;2.03;;
27293;SDS011;14785;52.556;13.430;2023-02-02T05:43:13;9.40;;;1.90;;
27293;SDS011;14785;52.556;13.430;2023-02-02T05:45:38;2.70;;;0.83;;
27293;SDS011;14785;52.556;13.430;2023-02-02T05:48:04;4.87;;;1.43;;
27293;SDS011;14785;52.556;13.430;2023-02-02T05:50:30;9.95;;;3.35;;
27293;SDS011;14785;52.556;13.430;2023-02-02T05:52:56;7.53;;;2.00;;
27293;SDS011;14785;52.556;13.430;2023-02-02T05:55:22;3.10;;;1.15;;
27293;SDS011;14785;52.556;13.430;2023-02-02T05:57:48;6.17;;;1.47;;
27293;SDS011;14785;52.556;13.430;2023-02-02T06:00:13;5.43;;;2.03;;
27293;SDS011;14785;52.556;13.430;2023-02-02T06:02:39;5.68;;;2.33;;
27293;SDS011;14785;52.556;13.430;2023-02-02T06:05:05;5.60;;;1.30;;
27293;SDS011;14785;52.556;13.430;2023-02-02T06:07:31;12.18;;;2.15;;
27293;SDS011;14785;52.556;13.430;2023-02-02T06:09:56;13.50;;;2.93;;
27293;SDS011;14785;52.556;13.430;2023-02-02T06:12:22;8.07;;;0.90;;
27293;SDS011;14785;52.556;13.430;2023-02-02T06:14:47;11.43;;;2.43;;
27293;SDS011;14785;52.556;13.430;2023-02-02T06:17:13;9.37;;;1.70;;
27293;SDS011;14785;52.556;13.430;2023-02-02T06:19:38;3.10;;;0.97;;
27293;SDS011;14785;52.556;13.430;2023-02-02T06:22:03;13.97;;;2.27;;
27293;SDS011;14785;52.556;13.430;2023-02-02T06:24:29;3.03;;;1.15;;
27293;SDS011;14785;52.556;13.430;2023-02-02T06:26:55;5.17;;;1.30;;
27293;SDS011;14785;52.556;13.430;2023-02-02T06:29:20;7.77;;;2.10;;
27293;SDS011;14785;52.556;13.430;2023-02-02T06:31:46;6.80;;;1.93;;
27293;SDS011;14785;52.556;13.430;2023-02-02T06:34:11;9.13;;;1.90;;
27293;SDS011;14785;52.556;13.430;2023-02-02T06:36:40;12.75;;;1.83;;
27293;SDS011;14785;52.556;13.430;2023-02-02T06:39:06;17.10;;;2.15;;
27293;SDS011;14785;52.556;13.430;2023-02-02T06:41:32;1.35;;;1.02;;
27293;SDS011;14785;52.556;13.430;2023-02-02T06:43:58;10.02;;;3.10;;
27293;SDS011;14785;52.556;13.430;2023-02-02T06:46:24;10.38;;;3.00;;
27293;SDS011;14785;52.556;13.430;2023-02-02T06:48:49;4.93;;;1.83;;
27293;SDS011;14785;52.556;13.430;2023-02-02T06:51:15;5.80;;;1.80;;
27293;SDS011;14785;52.556;13.430;2023-02-02T06:53:40;9.53;;;2.30;;
27293;SDS011;14785;52.556;13.430;2023-02-02T06:56:06;7.47;;;1.40;;
27293;SDS011;14785;52.556;13.430;2023-02-02T06:58:33;3.63;;;1.17;;
27293;SDS011;14785;52.556;13.430;2023-02-02T07:01:02;12.23;;;1.60;;
27293;SDS011;14785;52.556;13.430;2023-02-02T07:03:33;7.05;;;1.95;;
27293;SDS011;14785;52.556;13.430;2023-02-02T07:05:59;8.10;;;1.60;;
27293;SDS011;14785;52.556;13.430;2023-02-02T07:08:36;2.60;;;0.95;;
27293;SDS011;14785;52.556;13.430;2023-02-02T07:11:02;21.37;;;2.20;;
27293;SDS011;14785;52.556;13.430;2023-02-02T07:13:27;6.20;;;1.90;;
27293;SDS011;14785;52.556;13.430;2023-02-02T07:15:53;4.47;;;1.47;;
27293;SDS011;14785;52.556;13.430;2023-02-02T07:18:21;19.38;;;2.90;;
27293;SDS011;14785;52.556;13.430;2023-02-02T07:20:46;10.98;;;2.33;;
27293;SDS011;14785;52.556;13.430;2023-02-02T07:23:12;9.50;;;1.80;;
27293;SDS011;14785;52.556;13.430;2023-02-02T07:25:37;12.73;;;1.67;;
27293;SDS011;14785;52.556;13.430;2023-02-02T07:28:03;18.43;;;2.77;;
27293;SDS011;14785;52.556;13.430;2023-02-02T07:30:29;11.63;;;2.28;;
27293;SDS011;14785;52.556;13.430;2023-02-02T07:32:54;6.15;;;1.25;;
27293;SDS011;14785;52.556;13.430;2023-02-02T07:35:21;6.97;;;2.10;;
27293;SDS011;14785;52.556;13.430;2023-02-02T07:37:52;7.23;;;1.63;;
27293;SDS011;14785;52.556;13.430;2023-02-02T07:40:19;13.25;;;2.53;;
27293;SDS011;14785;52.556;13.430;2023-02-02T07:42:46;14.50;;;2.45;;
27293;SDS011;14785;52.556;13.430;2023-02-02T07:45:13;12.10;;;2.88;;
27293;SDS011;14785;52.556;13.430;2023-02-02T07:47:39;11.88;;;2.40;;
27293;SDS011;14785;52.556;13.430;2023-02-02T07:50:04;7.30;;;1.50;;
27293;SDS011;14785;52.556;13.430;2023-02-02T07:52:30;40.97;;;2.90;;
27293;SDS011;14785;52.556;13.430;2023-02-02T07:54:55;14.07;;;3.03;;
27293;SDS011;14785;52.556;13.430;2023-02-02T07:57:21;4.22;;;1.50;;
27293;SDS011;14785;52.556;13.430;2023-02-02T07:59:47;8.55;;;2.20;;
27293;SDS011;14785;52.556;13.430;2023-02-02T08:02:14;20.00;;;2.28;;
27293;SDS011;14785;52.556;13.430;2023-02-02T08:04:40;2.65;;;1.05;;
27293;SDS011;14785;52.556;13.430;2023-02-02T08:07:05;11.47;;;1.87;;
27293;SDS011;14785;52.556;13.430;2023-02-02T08:09:31;8.40;;;1.23;;
27293;SDS011;14785;52.556;13.430;2023-02-02T08:11:57;23.07;;;2.20;;
27293;SDS011;14785;52.556;13.430;2023-02-02T08:14:25;2.67;;;1.02;;
27293;SDS011;14785;52.556;13.430;2023-02-02T08:16:52;12.90;;;1.58;;
27293;SDS011;14785;52.556;13.430;2023-02-02T08:19:17;9.20;;;2.00;;
27293;SDS011;14785;52.556;13.430;2023-02-02T08:21:42;14.47;;;2.23;;
27293;SDS011;14785;52.556;13.430;2023-02-02T08:24:08;11.83;;;2.60;;
27293;SDS011;14785;52.556;13.430;2023-02-02T08:26:33;7.53;;;2.10;;
27293;SDS011;14785;52.556;13.430;2023-02-02T08:29:03;9.40;;;2.77;;
27293;SDS011;14785;52.556;13.430;2023-02-02T08:31:31;8.90;;;2.17;;
27293;SDS011;14785;52.556;13.430;2023-02-02T08:33:59;12.50;;;2.78;;
27293;SDS011;14785;52.556;13.430;2023-02-02T08:36:25;19.57;;;3.43;;
27293;SDS011;14785;52.556;13.430;2023-02-02T08:38:51;6.20;;;1.33;;
27293;SDS011;14785;52.556;13.430;2023-02-02T08:41:18;14.48;;;2.78;;
27293;SDS011;14785;52.556;13.430;2023-02-02T08:43:45;9.65;;;1.75;;
27293;SDS011;14785;52.556;13.430;2023-02-02T08:46:11;10.30;;;2.07;;
27293;SDS011;14785;52.556;13.430;2023-02-02T08:48:38;8.80;;;1.27;;
27293;SDS011;14785;52.556;13.430;2023-02-02T08:51:04;13.88;;;3.15;;
27293;SDS011;14785;52.556;13.430;2023-02-02T08:53:31;8.13;;;1.80;;
27293;SDS011;14785;52.556;13.430;2023-02-02T08:56:02;6.88;;;1.75;;
27293;SDS011;14785;52.556;13.430;2023-02-02T08:58:35;10.30;;;2.53;;
27293;SDS011;14785;52.556;13.430;2023-02-02T09:01:08;6.80;;;2.13;;
27293;SDS011;14785;52.556;13.430;2023-02-02T09:03:37;8.02;;;1.55;;
27293;SDS011;14785;52.556;13.430;2023-02-02T09:06:08;10.02;;;1.73;;
27293;SDS011;14785;52.556;13.430;2023-02-02T09:08:35;6.35;;;1.65;;
27293;SDS011;14785;52.556;13.430;2023-02-02T09:11:02;11.90;;;2.10;;
27293;SDS011;14785;52.556;13.430;2023-02-02T09:13:34;7.90;;;2.47;;
27293;SDS011;14785;52.556;13.430;2023-02-02T09:16:01;7.05;;;2.03;;
27293;SDS011;14785;52.556;13.430;2023-02-02T09:18:27;22.05;;;1.90;;
27293;SDS011;14785;52.556;13.430;2023-02-02T09:20:53;11.13;;;3.03;;
27293;SDS011;14785;52.556;13.430;2023-02-02T09:23:18;28.43;;;3.07;;
27293;SDS011;14785;52.556;13.430;2023-02-02T09:25:45;6.93;;;1.60;;
27293;SDS011;14785;52.556;13.430;2023-02-02T09:28:11;2.83;;;1.70;;
27293;SDS011;14785;52.556;13.430;2023-02-02T09:30:37;5.85;;;1.27;;
27293;SDS011;14785;52.556;13.430;2023-02-02T09:33:02;10.43;;;2.10;;
27293;SDS011;14785;52.556;13.430;2023-02-02T09:35:28;10.10;;;2.00;;
27293;SDS011;14785;52.556;13.430;2023-02-02T09:37:53;13.23;;;1.97;;
27293;SDS011;14785;52.556;13.430;2023-02-02T09:40:18;7.80;;;1.97;;
27293;SDS011;14785;52.556;13.430;2023-02-02T09:42:48;4.80;;;1.05;;
27293;SDS011;14785;52.556;13.430;2023-02-02T09:45:38;6.68;;;1.75;;
27293;SDS011;14785;52.556;13.430;2023-02-02T09:51:02;7.60;;;1.63;;
27293;SDS011;14785;52.556;13.430;2023-02-02T09:56:23;15.60;;;2.53;;
27293;SDS011;14785;52.556;13.430;2023-02-02T09:58:55;8.98;;;2.17;;
27293;SDS011;14785;52.556;13.430;2023-02-02T10:01:32;3.10;;;0.90;;
27293;SDS011;14785;52.556;13.430;2023-02-02T10:06:47;7.88;;;1.67;;
27293;SDS011;14785;52.556;13.430;2023-02-02T10:09:33;4.38;;;1.58;;
27293;SDS011;14785;52.556;13.430;2023-02-02T10:15:25;8.65;;;2.47;;
27293;SDS011;14785;52.556;13.430;2023-02-02T10:22:54;11.67;;;1.67;;
27293;SDS011;14785;52.556;13.430;2023-02-02T10:25:27;5.45;;;1.55;;
27293;SDS011;14785;52.556;13.430;2023-02-02T10:27:57;5.88;;;1.65;;
27293;SDS011;14785;52.556;13.430;2023-02-02T10:30:44;6.60;;;1.42;;
27293;SDS011;14785;52.556;13.430;2023-02-02T10:38:56;10.20;;;1.65;;
27293;SDS011;14785;52.556;13.430;2023-02-02T10:41:32;6.35;;;1.20;;
27293;SDS011;14785;52.556;13.430;2023-02-02T10:44:12;4.28;;;1.08;;
27293;SDS011;14785;52.556;13.430;2023-02-02T10:46:48;3.35;;;1.45;;
27293;SDS011;14785;52.556;13.430;2023-02-02T10:57:25;2.53;;;1.20;;
27293;SDS011;14785;52.556;13.430;2023-02-02T11:00:05;6.93;;;1.38;;
27293;SDS011;14785;52.556;13.430;2023-02-02T11:02:35;9.82;;;1.48;;
27293;SDS011;14785;52.556;13.430;2023-02-02T11:05:00;3.17;;;0.77;;
27293;SDS011;14785;52.556;13.430;2023-02-02T11:07:44;5.72;;;1.27;;
27293;SDS011;14785;52.556;13.430;2023-02-02T11:10:10;7.00;;;1.87;;
27293;SDS011;14785;52.556;13.430;2023-02-02T11:12:43;3.13;;;0.93;;
27293;SDS011;14785;52.556;13.430;2023-02-02T11:15:22;6.00;;;1.60;;
27293;SDS011;14785;52.556;13.430;2023-02-02T11:17:50;9.63;;;2.13;;
27293;SDS011;14785;52.556;13.430;2023-02-02T11:20:34;3.17;;;1.10;;
27293;SDS011;14785;52.556;13.430;2023-02-02T11:23:03;6.28;;;0.77;;
27293;SDS011;14785;52.556;13.430;2023-02-02T11:25:35;4.97;;;0.95;;
27293;SDS011;14785;52.556;13.430;2023-02-02T11:28:20;3.60;;;1.08;;
27293;SDS011;14785;52.556;13.430;2023-02-02T11:30:49;12.35;;;1.60;;
27293;SDS011;14785;52.556;13.430;2023-02-02T11:36:01;2.08;;;0.98;;
27293;SDS011;14785;52.556;13.430;2023-02-02T11:38:42;1.30;;;0.70;;
27293;SDS011;14785;52.556;13.430;2023-02-02T11:41:07;4.70;;;1.30;;
27293;SDS011;14785;52.556;13.430;2023-02-02T11:43:47;1.50;;;0.60;;
27293;SDS011;14785;52.556;13.430;2023-02-02T11:48:47;6.53;;;1.23;;
27293;SDS011;14785;52.556;13.430;2023-02-02T11:51:23;2.33;;;1.00;;
27293;SDS011;14785;52.556;13.430;2023-02-02T11:53:59;9.48;;;1.42;;
27293;SDS011;14785;52.556;13.430;2023-02-02T11:56:29;4.32;;;1.00;;
27293;SDS011;14785;52.556;13.430;2023-02-02T11:58:55;5.85;;;1.73;;
27293;SDS011;14785;52.556;13.430;2023-02-02T12:01:37;2.53;;;1.08;;
27293;SDS011;14785;52.556;13.430;2023-02-02T12:06:39;5.65;;;1.35;;
27293;SDS011;14785;52.556;13.430;2023-02-02T12:09:12;2.83;;;1.63;;
27293;SDS011;14785;52.556;13.430;2023-02-02T12:16:55;6.32;;;1.55;;
27293;SDS011;14785;52.556;13.430;2023-02-02T12:19:45;3.92;;;1.65;;
27293;SDS011;14785;52.556;13.430;2023-02-02T12:28:03;5.57;;;1.05;;
27293;SDS011;14785;52.556;13.430;2023-02-02T12:36:38;8.73;;;1.17;;
27293;SDS011;14785;52.556;13.430;2023-02-02T12:47:26;7.00;;;0.90;;
27293;SDS011;14785;52.556;13.430;2023-02-02T12:50:16;3.95;;;0.80;;
27293;SDS011;14785;52.556;13.430;2023-02-02T12:55:38;11.30;;;1.38;;
27293;SDS011;14785;52.556;13.430;2023-02-02T12:58:15;7.68;;;1.83;;
27293;SDS011;14785;52.556;13.430;2023-02-02T13:01:14;12.13;;;1.27;;
27293;SDS011;14785;52.556;13.430;2023-02-02T13:03:56;3.53;;;1.20;;
27293;SDS011;14785;52.556;13.430;2023-02-02T13:12:08;10.35;;;1.20;;
27293;SDS011;14785;52.556;13.430;2023-02-02T13:14:37;4.80;;;1.58;;
27293;SDS011;14785;52.556;13.430;2023-02-02T13:17:20;2.40;;;0.80;;
27293;SDS011;14785;52.556;13.430;2023-02-02T13:20:03;6.88;;;1.38;;
27293;SDS011;14785;52.556;13.430;2023-02-02T13:22:37;2.75;;;1.02;;
27293;SDS011;14785;52.556;13.430;2023-02-02T13:25:15;1.20;;;0.47;;
27293;SDS011;14785;52.556;13.430;2023-02-02T13:28:03;3.33;;;1.73;;
27293;SDS011;14785;52.556;13.430;2023-02-02T13:33:04;1.30;;;1.05;;
27293;SDS011;14785;52.556;13.430;2023-02-02T13:35:48;1.38;;;0.95;;
27293;SDS011;14785;52.556;13.430;2023-02-02T13:38:22;6.15;;;1.40;;
27293;SDS011;14785;52.556;13.430;2023-02-02T13:40:50;2.95;;;0.98;;
27293;SDS011;14785;52.556;13.430;2023-02-02T14:05:00;4.43;;;0.77;;
27293;SDS011;14785;52.556;13.430;2023-02-02T14:07:32;5.18;;;1.38;;
27293;SDS011;14785;52.556;13.430;2023-02-02T14:10:03;1.23;;;0.75;;
27293;SDS011;14785;52.556;13.430;2023-02-02T14:12:30;3.42;;;0.90;;
27293;SDS011;14785;52.556;13.430;2023-02-02T14:14:58;1.98;;;1.70;;
27293;SDS011;14785;52.556;13.430;2023-02-02T14:22:39;1.65;;;1.00;;
27293;SDS011;14785;52.556;13.430;2023-02-02T14:27:54;2.30;;;1.15;;
27293;SDS011;14785;52.556;13.430;2023-02-02T14:30:25;3.35;;;0.85;;
27293;SDS011;14785;52.556;13.430;2023-02-02T14:32:52;1.95;;;0.80;;
27293;SDS011;14785;52.556;13.430;2023-02-02T14:38:16;1.98;;;0.95;;
27293;SDS011;14785;52.556;13.430;2023-02-02T14:41:05;2.47;;;0.63;;
27293;SDS011;14785;52.556;13.430;2023-02-02T14:44:02;1.85;;;0.98;;
27293;SDS011;14785;52.556;13.430;2023-02-02T14:51:24;0.80;;;0.30;;
27293;SDS011;14785;52.556;13.430;2023-02-02T14:53:53;1.95;;;0.43;;
27293;SDS011;14785;52.556;13.430;2023-02-02T15:02:12;3.67;;;0.85;;
27293;SDS011;14785;52.556;13.430;2023-02-02T15:04:41;2.97;;;1.25;;
27293;SDS011;14785;52.556;13.430;2023-02-02T15:09:48;4.75;;;1.30;;
27293;SDS011;14785;52.556;13.430;2023-02-02T15:25:16;4.32;;;1.15;;
27293;SDS011;14785;52.556;13.430;2023-02-02T15:27:44;2.35;;;0.63;;
27293;SDS011;14785;52.556;13.430;2023-02-02T15:30:16;1.58;;;0.43;;
27293;SDS011;14785;52.556;13.430;2023-02-02T15:32:42;3.22;;;0.75;;
27293;SDS011;14785;52.556;13.430;2023-02-02T15:35:13;1.17;;;0.82;;
27293;SDS011;14785;52.556;13.430;2023-02-02T15:37:44;1.88;;;0.80;;
27293;SDS011;14785;52.556;13.430;2023-02-02T15:40:19;1.52;;;0.88;;
27293;SDS011;14785;52.556;13.430;2023-02-02T15:42:48;1.15;;;0.70;;
27293;SDS011;14785;52.556;13.430;2023-02-02T15:50:59;1.95;;;1.08;;
27293;SDS011;14785;52.556;13.430;2023-02-02T15:53:43;1.65;;;0.88;;
27293;SDS011;14785;52.556;13.430;2023-02-02T15:58:49;1.35;;;0.75;;
27293;SDS011;14785;52.556;13.430;2023-02-02T16:01:17;1.75;;;0.82;;
27293;SDS011;14785;52.556;13.430;2023-02-02T16:04:03;1.80;;;0.63;;
27293;SDS011;14785;52.556;13.430;2023-02-02T16:06:46;4.88;;;0.70;;
27293;SDS011;14785;52.556;13.430;2023-02-02T16:09:18;1.80;;;1.08;;
27293;SDS011;14785;52.556;13.430;2023-02-02T16:11:49;1.73;;;0.93;;
27293;SDS011;14785;52.556;13.430;2023-02-02T16:14:16;2.58;;;0.80;;
27293;SDS011;14785;52.556;13.430;2023-02-02T16:16:42;1.67;;;0.90;;
27293;SDS011;14785;52.556;13.430;2023-02-02T16:22:19;4.53;;;1.53;;
27293;SDS011;14785;52.556;13.430;2023-02-02T16:24:33;1.38;;;1.05;;
27293;SDS011;14785;52.556;13.430;2023-02-02T16:27:11;3.30;;;0.95;;
27293;SDS011;14785;52.556;13.430;2023-02-02T16:29:39;1.40;;;0.68;;
27293;SDS011;14785;52.556;13.430;2023-02-02T16:32:18;1.95;;;1.05;;
27293;SDS011;14785;52.556;13.430;2023-02-02T16:34:56;7.53;;;1.52;;
27293;SDS011;14785;52.556;13.430;2023-02-02T16:37:25;5.38;;;1.00;;
27293;SDS011;14785;52.556;13.430;2023-02-02T16:40:13;11.00;;;1.60;;
27293;SDS011;14785;52.556;13.430;2023-02-02T16:45:47;2.75;;;1.17;;
27293;SDS011;14785;52.556;13.430;2023-02-02T16:51:04;1.95;;;0.95;;
27293;SDS011;14785;52.556;13.430;2023-02-02T16:53:30;4.97;;;1.63;;
27293;SDS011;14785;52.556;13.430;2023-02-02T16:55:56;4.35;;;1.10;;
27293;SDS011;14785;52.556;13.430;2023-02-02T16:58:22;2.25;;;1.33;;
27293;SDS011;14785;52.556;13.430;2023-02-02T17:01:05;3.90;;;1.55;;
27293;SDS011;14785;52.556;13.430;2023-02-02T17:03:35;4.35;;;1.35;;
27293;SDS011;14785;52.556;13.430;2023-02-02T17:06:03;4.93;;;1.20;;
27293;SDS011;14785;52.556;13.430;2023-02-02T17:08:30;3.20;;;1.35;;
27293;SDS011;14785;52.556;13.430;2023-02-02T17:13:34;3.33;;;1.13;;
27293;SDS011;14785;52.556;13.430;2023-02-02T17:16:01;3.42;;;1.55;;
27293;SDS011;14785;52.556;13.430;2023-02-02T17:18:27;2.30;;;1.02;;
27293;SDS011;14785;52.556;13.430;2023-02-02T17:20:53;1.47;;;1.33;;
27293;SDS011;14785;52.556;13.430;2023-02-02T17:23:28;1.67;;;1.35;;
27293;SDS011;14785;52.556;13.430;2023-02-02T17:26:00;3.35;;;1.52;;
27293;SDS011;14785;52.556;13.430;2023-02-02T17:28:26;11.38;;;1.67;;
27293;SDS011;14785;52.556;13.430;2023-02-02T17:30:57;5.65;;;1.65;;
27293;SDS011;14785;52.556;13.430;2023-02-02T17:33:24;1.98;;;1.30;;
27293;SDS011;14785;52.556;13.430;2023-02-02T17:35:51;4.47;;;1.52;;
27293;SDS011;14785;52.556;13.430;2023-02-02T17:38:20;4.20;;;2.13;;
27293;SDS011;14785;52.556;13.430;2023-02-02T17:40:47;6.90;;;2.80;;
27293;SDS011;14785;52.556;13.430;2023-02-02T17:43:13;4.28;;;2.35;;
27293;SDS011;14785;52.556;13.430;2023-02-02T17:48:07;6.78;;;2.10;;
27293;SDS011;14785;52.556;13.430;2023-02-02T17:50:35;3.42;;;2.13;;
27293;SDS011;14785;52.556;13.430;2023-02-02T17:53:01;5.40;;;1.80;;
27293;SDS011;14785;52.556;13.430;2023-02-02T17:55:29;3.78;;;1.40;;